createdAt,value
2019-04-14T00:01:44.078Z,4.01
2019-04-14T00:04:16.125Z,3.97
2019-04-14T00:06:44.156Z,3.96
2019-04-14T00:09:14.025Z,4.01
2019-04-14T00:11:45.876Z,4.03
2019-04-14T00:14:14.179Z,4.03
2019-04-14T00:16:42.431Z,4.04
2019-04-14T00:19:10.799Z,4.02
2019-04-14T00:21:38.933Z,4.06
2019-04-14T00:24:07.288Z,4.10
2019-04-14T00:26:35.632Z,4.13
2019-04-14T00:29:04.620Z,4.22
2019-04-14T00:31:32.885Z,4.26
2019-04-14T00:34:05.140Z,4.25
2019-04-14T00:36:34.818Z,4.23
2019-04-14T00:39:03.682Z,4.22
2019-04-14T00:41:41.354Z,4.20
2019-04-14T00:44:03.636Z,4.19
2019-04-14T00:46:38.799Z,4.23
2019-04-14T00:49:05.599Z,4.22
2019-04-14T00:51:33.140Z,4.22
2019-04-14T00:54:00.285Z,4.22
2019-04-14T00:56:27.937Z,4.20
2019-04-14T00:58:56.022Z,4.22
2019-04-14T01:01:24.291Z,4.25
2019-04-14T01:03:52.559Z,4.26
2019-04-14T01:06:20.701Z,4.26
2019-04-14T01:08:48.883Z,4.28
2019-04-14T01:11:16.028Z,4.28
2019-04-14T01:13:43.957Z,4.29
2019-04-14T01:16:15.516Z,4.30
2019-04-14T01:18:40.768Z,4.33
2019-04-14T01:21:08.822Z,4.34
2019-04-14T01:23:36.877Z,4.37
2019-04-14T01:26:05.034Z,4.40
2019-04-14T01:28:32.995Z,4.43
2019-04-14T01:31:01.088Z,4.47
2019-04-14T01:33:29.307Z,4.46
2019-04-14T01:35:57.416Z,4.47
2019-04-14T01:38:25.440Z,4.50
2019-04-14T01:40:53.160Z,4.54
2019-04-14T01:43:21.265Z,4.52
2019-04-14T01:46:00.620Z,4.53
2019-04-14T01:48:17.211Z,4.54
2019-04-14T01:50:56.196Z,4.55
2019-04-14T01:53:35.717Z,4.55
2019-04-14T01:56:23.281Z,4.59
2019-04-14T01:58:53.409Z,4.61
2019-04-14T02:01:23.864Z,4.61
2019-04-14T02:03:51.937Z,4.61
2019-04-14T02:06:20.185Z,4.64
2019-04-14T02:08:48.535Z,4.64
2019-04-14T02:11:15.882Z,4.67
2019-04-14T02:13:44.015Z,4.69
2019-04-14T02:16:21.888Z,4.69
2019-04-14T02:18:40.572Z,4.74
2019-04-14T02:21:08.532Z,4.73
2019-04-14T02:23:36.585Z,4.78
2019-04-14T02:26:04.688Z,4.78
2019-04-14T02:28:33.067Z,4.81
2019-04-14T02:31:12.986Z,4.84
2019-04-14T02:33:50.369Z,4.83
2019-04-14T02:36:32.550Z,4.80
2019-04-14T02:41:32.874Z,4.79
2019-04-14T02:46:22.007Z,4.83
2019-04-14T02:48:52.948Z,4.81
2019-04-14T02:51:19.385Z,4.79
2019-04-14T02:53:54.435Z,4.81
2019-04-14T02:56:22.328Z,4.79
2019-04-14T02:58:52.389Z,4.81
2019-04-14T03:01:27.544Z,4.84
2019-04-14T03:03:43.724Z,4.87
2019-04-14T03:08:45.686Z,4.87
2019-04-14T03:11:11.681Z,4.92
2019-04-14T03:13:45.022Z,4.93
2019-04-14T03:18:44.678Z,4.99
2019-04-14T03:24:09.341Z,4.96
2019-04-14T03:26:49.923Z,4.95
2019-04-14T03:29:36.765Z,4.89
2019-04-14T03:34:33.799Z,4.92
2019-04-14T03:39:26.844Z,4.94
2019-04-14T03:41:45.599Z,4.93
2019-04-14T03:44:21.288Z,4.92
2019-04-14T03:49:14.130Z,4.89
2019-04-14T03:54:03.638Z,4.93
2019-04-14T03:56:49.005Z,4.93
2019-04-14T03:59:17.552Z,4.95
2019-04-14T04:01:45.703Z,4.90
2019-04-14T04:04:13.943Z,4.89
2019-04-14T04:06:42.163Z,4.85
2019-04-14T04:09:10.432Z,4.90
2019-04-14T04:11:38.923Z,4.89
2019-04-14T04:14:05.998Z,4.96
2019-04-14T04:16:35.531Z,4.98
2019-04-14T04:19:13.011Z,5.00
2019-04-14T04:21:57.425Z,4.94
2019-04-14T04:24:43.286Z,5.01
2019-04-14T04:27:29.030Z,5.03
2019-04-14T04:30:10.238Z,5.02
2019-04-14T04:32:44.948Z,5.05
2019-04-14T04:35:32.565Z,5.07
2019-04-14T04:38:07.378Z,5.07
2019-04-14T04:40:35.301Z,5.07
2019-04-14T04:43:03.716Z,5.10
2019-04-14T04:45:30.648Z,5.07
2019-04-14T04:47:57.740Z,5.09
2019-04-14T04:50:26.003Z,5.11
2019-04-14T04:52:54.002Z,5.14
2019-04-14T04:55:22.002Z,5.12
2019-04-14T04:57:50.176Z,5.13
2019-04-14T05:00:17.853Z,5.12
2019-04-14T05:02:46.049Z,5.11
2019-04-14T05:05:51.396Z,5.11
2019-04-14T05:08:19.549Z,5.06
2019-04-14T05:10:48.658Z,5.09
2019-04-14T05:13:16.163Z,5.12
2019-04-14T05:15:45.081Z,5.23
2019-04-14T05:18:13.902Z,5.25
2019-04-14T05:20:41.955Z,5.33
2019-04-14T05:23:10.128Z,5.38
2019-04-14T05:25:37.101Z,5.39
2019-04-14T05:28:04.788Z,5.52
2019-04-14T05:30:32.881Z,5.60
2019-04-14T05:33:00.914Z,5.72
2019-04-14T05:35:29.097Z,5.69
2019-04-14T05:37:57.208Z,5.74
2019-04-14T05:40:25.527Z,5.82
2019-04-14T05:42:53.684Z,5.92
2019-04-14T05:45:21.914Z,6.04
2019-04-14T05:47:50.115Z,6.13
2019-04-14T05:50:18.149Z,6.14
2019-04-14T05:52:45.203Z,6.16
2019-04-14T05:55:13.385Z,6.19
2019-04-14T05:57:41.640Z,6.25
2019-04-14T06:00:10.965Z,6.30
2019-04-14T06:02:38.066Z,6.31
2019-04-14T06:05:06.442Z,6.32
2019-04-14T06:07:33.644Z,6.37
2019-04-14T06:10:00.656Z,6.45
2019-04-14T06:12:27.577Z,6.42
2019-04-14T06:14:54.524Z,6.38
2019-04-14T06:17:23.348Z,6.43
2019-04-14T06:19:50.326Z,6.51
2019-04-14T06:22:17.349Z,6.55
2019-04-14T06:24:44.133Z,6.64
2019-04-14T06:27:10.984Z,6.72
2019-04-14T06:29:37.919Z,6.81
2019-04-14T06:32:11.414Z,6.79
2019-04-14T06:34:57.251Z,6.88
2019-04-14T06:37:26.408Z,6.93
2019-04-14T06:39:55.553Z,6.96
2019-04-14T06:42:22.402Z,7.07
2019-04-14T06:44:49.218Z,7.22
2019-04-14T06:47:16.042Z,7.29
2019-04-14T06:49:48.801Z,7.46
2019-04-14T06:52:12.104Z,7.58
2019-04-14T06:54:40.527Z,7.75
2019-04-14T06:57:07.653Z,7.85
2019-04-14T06:59:34.491Z,7.91
2019-04-14T07:02:01.866Z,7.98
2019-04-14T07:04:29.089Z,8.10
2019-04-14T07:06:55.869Z,8.08
2019-04-14T07:09:22.773Z,8.16
2019-04-14T07:11:49.719Z,8.14
2019-04-14T07:14:16.583Z,8.15
2019-04-14T07:16:43.525Z,8.22
2019-04-14T07:19:10.565Z,8.22
2019-04-14T07:21:37.514Z,8.21
2019-04-14T07:24:04.724Z,8.24
2019-04-14T07:26:31.754Z,8.36
2019-04-14T07:28:58.867Z,8.40
2019-04-14T07:31:44.495Z,8.44
2019-04-14T07:34:25.696Z,8.50
2019-04-14T07:36:54.503Z,8.57
2019-04-14T07:39:31.919Z,8.60
2019-04-14T07:42:16.033Z,8.78
2019-04-14T07:45:01.538Z,8.93
2019-04-14T07:47:36.210Z,8.93
2019-04-14T07:50:21.861Z,9.05
2019-04-14T07:52:50.975Z,9.43
2019-04-14T07:55:19.853Z,10.00
2019-04-14T07:57:54.893Z,10.03
2019-04-14T08:00:31.567Z,10.28
2019-04-14T08:03:04.129Z,10.46
2019-04-14T08:05:32.884Z,10.34
2019-04-14T08:07:59.859Z,10.44
2019-04-14T08:10:26.715Z,10.48
2019-04-14T08:12:53.696Z,10.63
2019-04-14T08:15:20.661Z,10.70
2019-04-14T08:17:47.626Z,10.79
2019-04-14T08:20:26.416Z,10.90
2019-04-14T08:22:43.564Z,10.98
2019-04-14T08:25:10.550Z,11.16
2019-04-14T08:27:37.531Z,11.05
2019-04-14T08:30:07.407Z,10.99
2019-04-14T08:32:34.338Z,10.97
2019-04-14T08:35:01.253Z,11.16
2019-04-14T08:37:28.246Z,10.97
2019-04-14T08:39:55.273Z,11.03
2019-04-14T08:42:24.586Z,11.27
2019-04-14T08:44:53.273Z,11.46
2019-04-14T08:47:24.916Z,11.58
2019-04-14T08:49:57.063Z,11.69
2019-04-14T08:52:32.160Z,11.88
2019-04-14T08:55:06.818Z,11.67
2019-04-14T08:57:53.049Z,12.12
2019-04-14T09:00:31.429Z,12.21
2019-04-14T09:03:06.381Z,12.09
2019-04-14T09:05:38.597Z,12.21
2019-04-14T09:08:10.504Z,12.41
2019-04-14T09:10:39.446Z,12.12
2019-04-14T09:13:06.419Z,12.09
2019-04-14T09:15:33.366Z,12.73
2019-04-14T09:18:00.551Z,13.07
2019-04-14T09:20:27.502Z,13.30
2019-04-14T09:22:54.541Z,13.87
2019-04-14T09:25:21.464Z,14.51
2019-04-14T09:27:48.786Z,14.37
2019-04-14T09:30:16.219Z,14.43
2019-04-14T09:32:43.119Z,14.63
2019-04-14T09:52:05.433Z,23.48
2019-04-14T09:54:32.887Z,27.77
2019-04-14T09:56:59.886Z,20.63
2019-04-14T09:59:30.072Z,19.53
2019-04-14T10:01:57.115Z,18.20
2019-04-14T10:04:24.099Z,17.83
2019-04-14T10:06:51.531Z,17.09
2019-04-14T10:09:18.518Z,17.24
2019-04-14T10:11:48.909Z,17.23
2019-04-14T10:14:14.309Z,17.45
2019-04-14T10:16:41.251Z,17.60
2019-04-14T10:19:08.155Z,17.45
2019-04-14T10:21:35.010Z,17.30
2019-04-14T10:24:02.668Z,17.47
2019-04-14T10:26:29.565Z,17.50
2019-04-14T10:28:56.489Z,17.34
2019-04-14T10:31:23.366Z,17.47
2019-04-14T10:33:52.376Z,17.45
2019-04-14T10:36:19.482Z,17.61
2019-04-14T11:08:14.936Z,24.00
2019-04-14T11:10:41.952Z,21.63
2019-04-14T11:13:08.873Z,20.40
2019-04-14T11:15:35.755Z,19.12
2019-04-14T11:18:03.205Z,18.93
2019-04-14T11:20:30.196Z,18.90
2019-04-14T11:23:03.128Z,18.86
2019-04-14T11:25:25.891Z,18.90
2019-04-14T11:27:52.923Z,18.65
2019-04-14T11:30:21.703Z,18.84
2019-04-14T11:32:51.069Z,18.93
2019-04-14T11:35:19.751Z,18.75
2019-04-14T11:37:48.927Z,18.76
2019-04-14T11:40:17.783Z,18.72
2019-04-14T11:42:52.159Z,18.80
2019-04-14T11:45:13.647Z,18.89
2019-04-14T11:47:41.142Z,18.88
2019-04-14T11:50:08.459Z,19.20
2019-04-14T11:52:36.094Z,19.32
2019-04-14T11:55:04.264Z,18.75
2019-04-14T11:57:31.206Z,18.74
2019-04-14T12:00:16.833Z,19.02
2019-04-14T12:02:49.134Z,18.88
2019-04-14T12:05:18.298Z,19.12
2019-04-14T12:07:49.928Z,19.03
2019-04-14T12:10:17.265Z,19.15
2019-04-14T12:12:44.182Z,19.19
2019-04-14T12:15:15.998Z,18.86
2019-04-14T12:17:40.072Z,18.90
2019-04-14T12:20:07.414Z,18.96
2019-04-14T12:22:34.441Z,18.81
2019-04-14T12:25:01.432Z,18.56
2019-04-14T12:27:28.287Z,18.66
2019-04-14T12:29:56.705Z,18.77
2019-04-14T12:32:24.310Z,18.91
2019-04-14T12:34:51.054Z,18.50
2019-04-14T12:37:18.600Z,18.55
2019-04-14T12:39:46.095Z,18.76
2019-04-14T12:42:30.270Z,18.83
2019-04-14T12:45:14.277Z,18.96
2019-04-14T12:47:58.208Z,18.97
2019-04-14T12:50:33.242Z,18.62
2019-04-14T12:53:00.903Z,19.12
2019-04-14T12:55:27.746Z,18.89
2019-04-14T12:57:56.661Z,19.07
2019-04-14T13:00:31.705Z,18.69
2019-04-14T13:02:58.622Z,18.56
2019-04-14T13:05:25.562Z,18.71
2019-04-14T13:07:52.551Z,18.95
2019-04-14T13:10:21.153Z,18.90
2019-04-14T13:12:48.120Z,19.02
2019-04-14T13:15:15.105Z,19.12
2019-04-14T13:17:41.971Z,18.84
2019-04-14T13:20:10.722Z,18.44
2019-04-14T13:22:37.752Z,18.50
2019-04-14T13:25:05.650Z,18.48
2019-04-14T13:27:33.179Z,18.06
2019-04-14T13:30:00.035Z,18.06
2019-04-14T13:32:35.776Z,17.62
2019-04-14T13:34:55.620Z,17.66
2019-04-14T13:37:22.710Z,17.76
2019-04-14T13:39:49.872Z,17.93
2019-04-14T13:42:16.768Z,17.71
2019-04-14T13:44:43.662Z,17.61
2019-04-14T13:47:10.793Z,17.37
2019-04-14T13:49:37.691Z,17.17
2019-04-14T13:52:04.693Z,17.04
2019-04-14T13:54:31.681Z,17.09
2019-04-14T13:56:58.548Z,17.27
2019-04-14T13:59:26.100Z,17.16
2019-04-14T14:01:53.145Z,17.18
2019-04-14T14:04:20.250Z,17.03
2019-04-14T14:06:47.130Z,17.19
2019-04-14T14:09:14.242Z,17.35
2019-04-14T14:11:59.389Z,17.44
2019-04-14T14:14:46.289Z,17.51
2019-04-14T14:17:16.901Z,17.16
2019-04-14T14:19:54.610Z,17.28
2019-04-14T14:22:40.504Z,17.21
2019-04-14T14:25:16.874Z,16.86
2019-04-14T14:27:43.929Z,17.00
2019-04-14T14:30:14.358Z,16.82
2019-04-14T14:32:41.271Z,16.91
2019-04-14T14:35:08.215Z,16.59
2019-04-14T14:37:35.213Z,16.59
2019-04-14T14:40:03.429Z,16.71
2019-04-14T14:42:30.405Z,16.48
2019-04-14T14:45:00.084Z,16.36
2019-04-14T14:47:28.835Z,16.19
2019-04-14T14:49:58.988Z,16.26
2019-04-14T14:52:25.962Z,16.12
2019-04-14T14:54:52.859Z,16.18
2019-04-14T14:57:19.819Z,16.07
2019-04-14T14:59:46.707Z,15.88
2019-04-14T15:02:14.080Z,15.77
2019-04-14T15:04:40.955Z,15.77
2019-04-14T15:07:08.036Z,15.74
2019-04-14T15:09:35.066Z,15.68
2019-04-14T15:13:32.813Z,15.87
2019-04-14T15:16:00.040Z,15.74
2019-04-14T15:18:26.939Z,15.62
2019-04-14T15:20:54.167Z,15.74
2019-04-14T15:23:25.323Z,16.72
2019-04-14T15:25:50.007Z,16.97
2019-04-14T15:28:17.017Z,16.24
2019-04-14T15:30:43.888Z,16.05
2019-04-14T15:33:10.665Z,15.94
2019-04-14T15:35:37.817Z,15.91
2019-04-14T15:38:04.933Z,15.86
2019-04-14T15:40:31.878Z,15.63
2019-04-14T15:42:58.911Z,15.62
2019-04-14T15:45:25.776Z,15.78
2019-04-14T15:47:53.771Z,16.12
2019-04-14T15:50:20.775Z,15.87
2019-04-14T15:52:47.847Z,15.75
2019-04-14T15:55:16.521Z,15.57
2019-04-14T15:57:51.566Z,15.48
2019-04-14T16:00:29.626Z,15.28
2019-04-14T16:03:15.297Z,15.10
2019-04-14T16:06:00.674Z,15.00
2019-04-14T16:08:29.640Z,14.21
2019-04-14T16:10:58.774Z,14.13
2019-04-14T16:13:44.177Z,13.72
2019-04-14T16:16:19.518Z,13.63
2019-04-14T16:18:53.592Z,13.95
2019-04-14T16:21:20.505Z,14.22
2019-04-14T16:23:50.732Z,14.21
2019-04-14T16:26:21.160Z,14.22
2019-04-14T16:29:05.002Z,13.99
2019-04-14T16:31:51.465Z,13.95
2019-04-14T16:34:20.218Z,13.93
2019-04-14T16:36:49.108Z,13.79
2019-04-14T16:39:15.967Z,14.12
2019-04-14T16:41:43.233Z,14.59
2019-04-14T16:44:10.377Z,15.03
2019-04-14T16:46:37.130Z,15.34
2019-04-14T16:49:04.113Z,15.55
2019-04-14T16:51:33.130Z,15.73
2019-04-14T16:54:03.177Z,15.72
2019-04-14T16:56:49.463Z,15.65
2019-04-14T16:59:16.482Z,15.62
2019-04-14T17:01:44.207Z,15.54
2019-04-14T17:04:11.124Z,15.48
2019-04-14T17:06:38.183Z,15.43
2019-04-14T17:09:06.458Z,15.34
2019-04-14T17:11:33.317Z,15.27
2019-04-14T17:14:04.693Z,15.21
2019-04-14T17:16:33.765Z,15.12
2019-04-14T17:19:02.925Z,15.09
2019-04-14T17:21:40.705Z,14.98
2019-04-14T17:24:16.412Z,14.89
2019-04-14T17:26:56.205Z,14.79
2019-04-14T17:29:31.176Z,14.69
2019-04-14T17:32:16.571Z,14.58
2019-04-14T17:35:02.232Z,14.54
2019-04-14T17:37:43.376Z,14.45
2019-04-14T17:40:12.839Z,14.33
2019-04-14T17:42:48.238Z,14.26
2019-04-14T17:45:16.860Z,14.19
2019-04-14T17:47:49.294Z,14.11
2019-04-14T17:50:24.625Z,14.05
2019-04-14T17:53:03.068Z,13.98
2019-04-14T17:55:32.231Z,13.91
2019-04-14T17:58:01.773Z,13.85
2019-04-14T18:00:30.846Z,13.81
2019-04-14T18:03:00.023Z,13.75
2019-04-14T18:05:29.313Z,13.67
2019-04-14T18:07:58.201Z,13.63
2019-04-14T18:10:30.050Z,13.51
2019-04-14T18:13:07.132Z,13.49
2019-04-14T18:15:51.437Z,13.45
2019-04-14T18:18:39.263Z,13.40
2019-04-14T18:21:08.055Z,13.26
2019-04-14T18:23:35.079Z,13.18
2019-04-14T18:26:02.151Z,13.15
2019-04-14T18:28:43.099Z,13.14
2019-04-14T18:31:12.357Z,13.09
2019-04-14T18:33:47.286Z,13.04
2019-04-14T18:36:19.167Z,13.00
2019-04-14T18:39:05.282Z,12.93
2019-04-14T18:41:40.296Z,12.90
2019-04-14T18:44:09.186Z,12.77
2019-04-14T18:46:46.967Z,12.73
2019-04-14T18:49:18.603Z,12.67
2019-04-14T18:51:54.184Z,12.64
2019-04-14T18:54:25.911Z,12.57
2019-04-14T18:56:57.657Z,12.52
2019-04-14T18:59:29.369Z,12.42
2019-04-14T19:01:57.067Z,12.43
2019-04-14T19:04:24.296Z,12.37
2019-04-14T19:06:51.389Z,12.33
2019-04-14T19:09:18.850Z,12.27
2019-04-14T19:11:51.073Z,12.22
2019-04-14T19:14:20.040Z,12.20
2019-04-14T19:16:57.925Z,12.12
2019-04-14T19:19:24.962Z,12.02
2019-04-14T19:21:51.944Z,11.94
2019-04-14T19:24:19.070Z,11.88
2019-04-14T19:26:46.226Z,11.84
2019-04-14T19:29:13.236Z,11.75
2019-04-14T19:31:40.456Z,11.68
2019-04-14T19:34:07.464Z,11.67
2019-04-14T19:36:34.315Z,11.63
2019-04-14T19:39:01.383Z,11.62
2019-04-14T19:41:28.414Z,11.57
2019-04-14T19:43:55.297Z,11.50
2019-04-14T19:46:22.297Z,11.40
2019-04-14T19:48:49.201Z,11.34
2019-04-14T19:51:16.044Z,11.27
2019-04-14T19:53:43.101Z,11.22
2019-04-14T19:56:10.079Z,11.19
2019-04-14T19:58:37.177Z,11.15
2019-04-14T20:01:07.155Z,11.13
2019-04-14T20:03:34.112Z,11.07
2019-04-14T20:06:01.016Z,11.01
2019-04-14T20:08:31.065Z,11.00
2019-04-14T20:10:58.278Z,10.96
2019-04-14T20:13:27.408Z,10.97
2019-04-14T20:15:57.834Z,10.90
2019-04-14T20:18:43.345Z,10.85
2019-04-14T20:21:15.353Z,10.84
2019-04-14T20:23:47.770Z,10.81
2019-04-14T20:26:22.840Z,10.79
2019-04-14T20:28:52.073Z,10.80
2019-04-14T20:31:33.043Z,10.73
2019-04-14T20:34:00.258Z,10.70
2019-04-14T20:36:27.345Z,10.69
2019-04-14T20:38:54.435Z,10.62
2019-04-14T20:41:21.206Z,10.56
2019-04-14T20:43:48.117Z,10.53
2019-04-14T20:46:15.242Z,10.53
2019-04-14T20:48:42.266Z,10.51
2019-04-14T20:51:10.255Z,10.51
2019-04-14T20:53:37.282Z,10.45
2019-04-14T20:56:06.428Z,10.43
2019-04-14T20:58:33.624Z,10.42
2019-04-14T21:01:01.311Z,10.37
2019-04-14T21:03:42.703Z,10.30
2019-04-14T21:06:27.343Z,10.29
2019-04-14T21:08:58.722Z,10.23
2019-04-14T21:11:29.438Z,10.17
2019-04-14T21:14:01.057Z,10.10
2019-04-14T21:16:32.994Z,10.00
2019-04-14T21:19:04.622Z,9.89
2019-04-14T21:21:37.037Z,9.76
2019-04-14T21:24:05.998Z,9.77
2019-04-14T21:26:51.440Z,9.73
2019-04-14T21:29:26.537Z,9.75
2019-04-14T21:31:55.260Z,9.69
2019-04-14T21:34:40.442Z,9.61
2019-04-14T21:37:26.064Z,9.54
2019-04-14T21:40:11.461Z,9.47
2019-04-14T21:42:39.687Z,9.42
2019-04-14T21:45:07.289Z,9.40
2019-04-14T21:47:34.114Z,9.36
2019-04-14T21:50:01.308Z,9.33
2019-04-14T21:52:33.218Z,9.29
2019-04-14T21:55:02.362Z,9.28
2019-04-14T21:57:34.061Z,9.19
2019-04-14T22:00:19.650Z,9.09
2019-04-14T22:03:05.199Z,9.03
2019-04-14T22:05:44.818Z,8.99
2019-04-14T22:08:25.212Z,8.95
2019-04-14T22:11:07.500Z,8.96
2019-04-14T22:13:34.924Z,8.97
2019-04-14T22:16:02.060Z,8.93
2019-04-14T22:18:29.069Z,8.88
2019-04-14T22:20:57.347Z,8.91
2019-04-14T22:23:24.443Z,8.87
2019-04-14T22:25:51.461Z,8.84
2019-04-14T22:28:18.344Z,8.85
2019-04-14T22:30:45.346Z,8.87
2019-04-14T22:33:12.167Z,8.84
2019-04-14T22:35:39.274Z,8.82
2019-04-14T22:38:06.313Z,8.80
2019-04-14T22:40:33.249Z,8.69
2019-04-14T22:43:00.330Z,8.60
2019-04-14T22:45:28.537Z,8.54
2019-04-14T22:47:55.429Z,8.45
2019-04-14T22:50:22.644Z,8.31
2019-04-14T22:52:49.707Z,8.21
2019-04-14T22:55:16.548Z,8.23
2019-04-14T22:57:43.426Z,8.21
2019-04-14T23:00:18.798Z,8.23
2019-04-14T23:02:57.001Z,8.27
2019-04-14T23:05:26.021Z,8.17
2019-04-14T23:07:55.220Z,8.17
2019-04-14T23:10:41.160Z,8.19
2019-04-14T23:13:09.810Z,8.24
2019-04-14T23:15:55.423Z,8.15
2019-04-14T23:18:24.454Z,8.08
2019-04-14T23:20:53.358Z,8.03
2019-04-14T23:23:37.311Z,7.93
2019-04-14T23:26:04.862Z,7.92
2019-04-14T23:28:31.824Z,7.81
2019-04-14T23:31:01.708Z,7.74
2019-04-14T23:33:28.964Z,7.71
2019-04-14T23:35:55.834Z,7.66
2019-04-14T23:38:22.886Z,7.58
2019-04-14T23:40:49.876Z,7.54
2019-04-14T23:43:16.763Z,7.51
2019-04-14T23:45:43.780Z,7.49
2019-04-14T23:48:10.941Z,7.50
2019-04-14T23:50:37.728Z,7.47
2019-04-14T23:53:04.641Z,7.44
2019-04-14T23:55:31.697Z,7.38
2019-04-14T23:57:58.581Z,7.33
